sensor_id;sensor_type;location;lat;lon;timestamp;P1;durP1;ratioP1;P2;durP2;ratioP2
14171;SDS011;7165;52.388;4.928;2023-04-03T00:01:58;4.00;;;3.05;;
14171;SDS011;7165;52.388;4.928;2023-04-03T00:04:24;3.00;;;2.80;;
14171;SDS011;7165;52.388;4.928;2023-04-03T00:06:53;3.90;;;2.70;;
14171;SDS011;7165;52.388;4.928;2023-04-03T00:09:19;3.73;;;2.77;;
14171;SDS011;7165;52.388;4.928;2023-04-03T00:11:46;2.70;;;2.50;;
14171;SDS011;7165;52.388;4.928;2023-04-03T00:14:13;3.55;;;2.50;;
14171;SDS011;7165;52.388;4.928;2023-04-03T00:16:39;4.37;;;2.70;;
14171;SDS011;7165;52.388;4.928;2023-04-03T00:19:06;3.20;;;2.70;;
14171;SDS011;7165;52.388;4.928;2023-04-03T00:21:33;3.10;;;2.70;;
14171;SDS011;7165;52.388;4.928;2023-04-03T00:24:01;3.43;;;3.10;;
14171;SDS011;7165;52.388;4.928;2023-04-03T00:28:54;2.73;;;2.53;;
14171;SDS011;7165;52.388;4.928;2023-04-03T00:31:21;4.17;;;3.77;;
14171;SDS011;7165;52.388;4.928;2023-04-03T01:15:47;3.20;;;3.00;;
14171;SDS011;7165;52.388;4.928;2023-04-03T01:18:13;4.10;;;2.90;;
14171;SDS011;7165;52.388;4.928;2023-04-03T01:23:49;3.47;;;3.17;;
14171;SDS011;7165;52.388;4.928;2023-04-03T01:26:43;4.50;;;3.53;;
14171;SDS011;7165;52.388;4.928;2023-04-03T01:29:10;5.23;;;3.40;;
14171;SDS011;7165;52.388;4.928;2023-04-03T01:31:46;3.37;;;2.90;;
14171;SDS011;7165;52.388;4.928;2023-04-03T01:34:14;4.93;;;3.10;;
14171;SDS011;7165;52.388;4.928;2023-04-03T01:36:41;3.43;;;3.20;;
14171;SDS011;7165;52.388;4.928;2023-04-03T01:39:08;4.27;;;3.40;;
14171;SDS011;7165;52.388;4.928;2023-04-03T01:41:34;3.93;;;3.03;;
14171;SDS011;7165;52.388;4.928;2023-04-03T01:44:01;3.10;;;2.90;;
14171;SDS011;7165;52.388;4.928;2023-04-03T01:46:28;3.53;;;3.10;;
14171;SDS011;7165;52.388;4.928;2023-04-03T01:48:56;3.57;;;3.27;;
14171;SDS011;7165;52.388;4.928;2023-04-03T01:51:23;3.57;;;3.27;;
14171;SDS011;7165;52.388;4.928;2023-04-03T01:53:50;3.33;;;3.13;;
14171;SDS011;7165;52.388;4.928;2023-04-03T01:56:17;4.93;;;3.30;;
14171;SDS011;7165;52.388;4.928;2023-04-03T01:58:43;3.47;;;2.93;;
14171;SDS011;7165;52.388;4.928;2023-04-03T02:01:10;3.97;;;3.53;;
14171;SDS011;7165;52.388;4.928;2023-04-03T02:03:37;7.30;;;3.70;;
14171;SDS011;7165;52.388;4.928;2023-04-03T02:06:05;6.97;;;3.30;;
14171;SDS011;7165;52.388;4.928;2023-04-03T02:08:32;4.23;;;3.53;;
14171;SDS011;7165;52.388;4.928;2023-04-03T02:10:58;3.83;;;3.53;;
14171;SDS011;7165;52.388;4.928;2023-04-03T02:13:25;3.13;;;2.93;;
14171;SDS011;7165;52.388;4.928;2023-04-03T02:15:52;5.67;;;3.70;;
14171;SDS011;7165;52.388;4.928;2023-04-03T02:18:19;3.77;;;3.37;;
14171;SDS011;7165;52.388;4.928;2023-04-03T02:20:46;3.27;;;2.97;;
14171;SDS011;7165;52.388;4.928;2023-04-03T02:23:14;3.50;;;3.20;;
14171;SDS011;7165;52.388;4.928;2023-04-03T02:25:41;3.50;;;3.20;;
14171;SDS011;7165;52.388;4.928;2023-04-03T02:28:07;3.57;;;3.23;;
14171;SDS011;7165;52.388;4.928;2023-04-03T02:30:34;3.60;;;3.33;;
14171;SDS011;7165;52.388;4.928;2023-04-03T02:33:01;3.37;;;3.17;;
14171;SDS011;7165;52.388;4.928;2023-04-03T02:35:27;3.83;;;3.53;;
14171;SDS011;7165;52.388;4.928;2023-04-03T02:37:54;5.17;;;3.50;;
14171;SDS011;7165;52.388;4.928;2023-04-03T02:40:22;4.03;;;3.63;;
14171;SDS011;7165;52.388;4.928;2023-04-03T02:42:49;4.70;;;3.60;;
14171;SDS011;7165;52.388;4.928;2023-04-03T02:45:15;4.50;;;3.13;;
14171;SDS011;7165;52.388;4.928;2023-04-03T02:47:42;3.80;;;3.47;;
14171;SDS011;7165;52.388;4.928;2023-04-03T02:50:09;3.27;;;3.07;;
14171;SDS011;7165;52.388;4.928;2023-04-03T02:52:35;4.93;;;3.87;;
14171;SDS011;7165;52.388;4.928;2023-04-03T02:55:02;11.20;;;4.77;;
14171;SDS011;7165;52.388;4.928;2023-04-03T02:57:31;3.73;;;3.43;;
14171;SDS011;7165;52.388;4.928;2023-04-03T02:59:58;3.53;;;3.23;;
14171;SDS011;7165;52.388;4.928;2023-04-03T03:02:24;3.77;;;3.47;;
14171;SDS011;7165;52.388;4.928;2023-04-03T03:04:51;3.60;;;3.30;;
14171;SDS011;7165;52.388;4.928;2023-04-03T03:07:18;5.47;;;3.83;;
14171;SDS011;7165;52.388;4.928;2023-04-03T03:09:44;5.23;;;4.33;;
14171;SDS011;7165;52.388;4.928;2023-04-03T03:12:11;3.40;;;3.20;;
14171;SDS011;7165;52.388;4.928;2023-04-03T03:14:39;3.80;;;3.40;;
14171;SDS011;7165;52.388;4.928;2023-04-03T03:17:07;4.17;;;3.77;;
14171;SDS011;7165;52.388;4.928;2023-04-03T03:19:34;4.87;;;3.30;;
14171;SDS011;7165;52.388;4.928;2023-04-03T03:22:01;4.00;;;3.70;;
14171;SDS011;7165;52.388;4.928;2023-04-03T03:24:27;5.33;;;3.93;;
14171;SDS011;7165;52.388;4.928;2023-04-03T03:26:54;4.07;;;3.77;;
14171;SDS011;7165;52.388;4.928;2023-04-03T03:29:21;4.30;;;3.50;;
14171;SDS011;7165;52.388;4.928;2023-04-03T03:31:49;5.90;;;4.23;;
14171;SDS011;7165;52.388;4.928;2023-04-03T03:34:16;3.80;;;3.47;;
14171;SDS011;7165;52.388;4.928;2023-04-03T03:36:42;4.47;;;4.07;;
14171;SDS011;7165;52.388;4.928;2023-04-03T03:39:09;4.43;;;3.57;;
14171;SDS011;7165;52.388;4.928;2023-04-03T03:41:36;5.07;;;4.20;;
14171;SDS011;7165;52.388;4.928;2023-04-03T03:44:03;3.83;;;3.50;;
14171;SDS011;7165;52.388;4.928;2023-04-03T03:46:30;3.83;;;3.43;;
14171;SDS011;7165;52.388;4.928;2023-04-03T03:48:58;4.00;;;3.60;;
14171;SDS011;7165;52.388;4.928;2023-04-03T03:51:25;4.47;;;3.63;;
14171;SDS011;7165;52.388;4.928;2023-04-03T03:53:52;4.20;;;3.80;;
14171;SDS011;7165;52.388;4.928;2023-04-03T03:56:18;5.67;;;5.13;;
14171;SDS011;7165;52.388;4.928;2023-04-03T03:58:45;4.17;;;3.77;;
14171;SDS011;7165;52.388;4.928;2023-04-03T04:01:11;5.53;;;3.77;;
14171;SDS011;7165;52.388;4.928;2023-04-03T04:03:38;4.37;;;3.97;;
14171;SDS011;7165;52.388;4.928;2023-04-03T04:06:06;3.60;;;3.30;;
14171;SDS011;7165;52.388;4.928;2023-04-03T04:08:33;9.03;;;4.60;;
14171;SDS011;7165;52.388;4.928;2023-04-03T04:11:00;4.90;;;4.37;;
14171;SDS011;7165;52.388;4.928;2023-04-03T04:13:26;4.00;;;3.60;;
14171;SDS011;7165;52.388;4.928;2023-04-03T04:15:53;3.70;;;3.47;;
14171;SDS011;7165;52.388;4.928;2023-04-03T04:18:20;3.83;;;3.53;;
14171;SDS011;7165;52.388;4.928;2023-04-03T04:20:47;4.43;;;3.70;;
14171;SDS011;7165;52.388;4.928;2023-04-03T04:23:15;4.30;;;3.63;;
14171;SDS011;7165;52.388;4.928;2023-04-03T04:25:43;5.10;;;3.77;;
14171;SDS011;7165;52.388;4.928;2023-04-03T04:28:10;4.23;;;3.93;;
14171;SDS011;7165;52.388;4.928;2023-04-03T04:30:37;4.63;;;3.53;;
14171;SDS011;7165;52.388;4.928;2023-04-03T04:33:04;4.60;;;4.27;;
14171;SDS011;7165;52.388;4.928;2023-04-03T04:35:31;4.63;;;4.20;;
14171;SDS011;7165;52.388;4.928;2023-04-03T04:37:58;4.27;;;3.90;;
14171;SDS011;7165;52.388;4.928;2023-04-03T04:40:26;4.60;;;3.87;;
14171;SDS011;7165;52.388;4.928;2023-04-03T04:42:53;4.57;;;3.70;;
14171;SDS011;7165;52.388;4.928;2023-04-03T04:45:20;4.43;;;4.10;;
14171;SDS011;7165;52.388;4.928;2023-04-03T04:47:46;4.50;;;4.10;;
14171;SDS011;7165;52.388;4.928;2023-04-03T04:50:16;4.57;;;4.17;;
14171;SDS011;7165;52.388;4.928;2023-04-03T04:52:43;3.90;;;3.60;;
14171;SDS011;7165;52.388;4.928;2023-04-03T04:55:09;6.43;;;3.70;;
14171;SDS011;7165;52.388;4.928;2023-04-03T04:57:37;4.83;;;4.07;;
14171;SDS011;7165;52.388;4.928;2023-04-03T05:00:05;6.53;;;5.70;;
14171;SDS011;7165;52.388;4.928;2023-04-03T05:02:32;8.27;;;5.63;;
14171;SDS011;7165;52.388;4.928;2023-04-03T05:04:59;4.73;;;4.33;;
14171;SDS011;7165;52.388;4.928;2023-04-03T05:07:26;6.63;;;4.30;;
14171;SDS011;7165;52.388;4.928;2023-04-03T05:09:52;5.33;;;4.33;;
14171;SDS011;7165;52.388;4.928;2023-04-03T05:12:19;5.40;;;4.63;;
14171;SDS011;7165;52.388;4.928;2023-04-03T05:14:47;5.43;;;4.40;;
14171;SDS011;7165;52.388;4.928;2023-04-03T05:17:14;6.80;;;4.43;;
14171;SDS011;7165;52.388;4.928;2023-04-03T05:19:40;4.13;;;3.73;;
14171;SDS011;7165;52.388;4.928;2023-04-03T05:22:07;7.17;;;4.73;;
14171;SDS011;7165;52.388;4.928;2023-04-03T05:24:34;4.23;;;3.93;;
14171;SDS011;7165;52.388;4.928;2023-04-03T05:27:00;4.47;;;4.13;;
14171;SDS011;7165;52.388;4.928;2023-04-03T05:29:27;4.20;;;3.90;;
14171;SDS011;7165;52.388;4.928;2023-04-03T05:31:55;5.23;;;3.83;;
14171;SDS011;7165;52.388;4.928;2023-04-03T05:34:22;4.50;;;4.10;;
14171;SDS011;7165;52.388;4.928;2023-04-03T05:36:48;5.07;;;4.10;;
14171;SDS011;7165;52.388;4.928;2023-04-03T05:39:15;7.30;;;4.33;;
14171;SDS011;7165;52.388;4.928;2023-04-03T05:41:42;5.13;;;4.13;;
14171;SDS011;7165;52.388;4.928;2023-04-03T05:44:08;5.33;;;4.53;;
14171;SDS011;7165;52.388;4.928;2023-04-03T05:46:35;5.10;;;4.60;;
14171;SDS011;7165;52.388;4.928;2023-04-03T05:49:03;4.47;;;4.17;;
14171;SDS011;7165;52.388;4.928;2023-04-03T05:51:30;4.77;;;4.30;;
14171;SDS011;7165;52.388;4.928;2023-04-03T05:54:00;4.50;;;4.10;;
14171;SDS011;7165;52.388;4.928;2023-04-03T05:56:32;4.27;;;3.97;;
14171;SDS011;7165;52.388;4.928;2023-04-03T05:58:59;5.43;;;4.07;;
14171;SDS011;7165;52.388;4.928;2023-04-03T06:01:26;4.80;;;4.30;;
14171;SDS011;7165;52.388;4.928;2023-04-03T06:03:53;7.67;;;4.50;;
14171;SDS011;7165;52.388;4.928;2023-04-03T06:06:22;5.10;;;4.40;;
14171;SDS011;7165;52.388;4.928;2023-04-03T06:08:48;4.00;;;3.70;;
14171;SDS011;7165;52.388;4.928;2023-04-03T06:11:15;3.90;;;3.60;;
14171;SDS011;7165;52.388;4.928;2023-04-03T06:13:41;7.00;;;5.00;;
14171;SDS011;7165;52.388;4.928;2023-04-03T06:16:08;5.80;;;4.13;;
14171;SDS011;7165;52.388;4.928;2023-04-03T06:18:39;6.93;;;4.53;;
14171;SDS011;7165;52.388;4.928;2023-04-03T06:21:06;5.17;;;3.93;;
14171;SDS011;7165;52.388;4.928;2023-04-03T06:23:34;4.73;;;4.27;;
14171;SDS011;7165;52.388;4.928;2023-04-03T06:26:01;6.67;;;3.67;;
14171;SDS011;7165;52.388;4.928;2023-04-03T06:28:27;7.67;;;5.10;;
14171;SDS011;7165;52.388;4.928;2023-04-03T06:30:54;5.33;;;3.97;;
14171;SDS011;7165;52.388;4.928;2023-04-03T06:33:21;4.57;;;3.97;;
14171;SDS011;7165;52.388;4.928;2023-04-03T06:35:47;6.53;;;4.10;;
14171;SDS011;7165;52.388;4.928;2023-04-03T06:38:14;10.30;;;6.40;;
14171;SDS011;7165;52.388;4.928;2023-04-03T06:40:42;5.70;;;4.67;;
14171;SDS011;7165;52.388;4.928;2023-04-03T06:43:09;4.50;;;3.50;;
14171;SDS011;7165;52.388;4.928;2023-04-03T06:45:36;4.17;;;3.77;;
14171;SDS011;7165;52.388;4.928;2023-04-03T06:48:02;4.90;;;4.17;;
14171;SDS011;7165;52.388;4.928;2023-04-03T06:50:30;4.50;;;3.80;;
14171;SDS011;7165;52.388;4.928;2023-04-03T06:52:57;4.83;;;4.30;;
14171;SDS011;7165;52.388;4.928;2023-04-03T06:55:23;4.90;;;3.50;;
14171;SDS011;7165;52.388;4.928;2023-04-03T06:57:51;6.83;;;4.27;;
14171;SDS011;7165;52.388;4.928;2023-04-03T07:00:18;6.33;;;4.70;;
14171;SDS011;7165;52.388;4.928;2023-04-03T07:02:46;6.13;;;4.10;;
14171;SDS011;7165;52.388;4.928;2023-04-03T07:05:12;7.23;;;4.77;;
14171;SDS011;7165;52.388;4.928;2023-04-03T07:07:39;5.17;;;3.87;;
14171;SDS011;7165;52.388;4.928;2023-04-03T07:10:06;7.80;;;4.93;;
14171;SDS011;7165;52.388;4.928;2023-04-03T07:12:33;4.77;;;4.10;;
14171;SDS011;7165;52.388;4.928;2023-04-03T07:15:02;6.00;;;3.83;;
14171;SDS011;7165;52.388;4.928;2023-04-03T07:17:29;6.80;;;4.03;;
14171;SDS011;7165;52.388;4.928;2023-04-03T07:19:56;5.90;;;4.10;;
14171;SDS011;7165;52.388;4.928;2023-04-03T07:22:22;6.97;;;5.17;;
14171;SDS011;7165;52.388;4.928;2023-04-03T07:24:49;6.70;;;4.27;;
14171;SDS011;7165;52.388;4.928;2023-04-03T07:27:16;5.10;;;3.90;;
14171;SDS011;7165;52.388;4.928;2023-04-03T07:29:43;7.13;;;4.20;;
14171;SDS011;7165;52.388;4.928;2023-04-03T07:32:11;7.00;;;3.90;;
14171;SDS011;7165;52.388;4.928;2023-04-03T07:34:38;4.17;;;3.77;;
14171;SDS011;7165;52.388;4.928;2023-04-03T07:37:05;5.50;;;4.13;;
14171;SDS011;7165;52.388;4.928;2023-04-03T07:39:31;5.83;;;4.10;;
14171;SDS011;7165;52.388;4.928;2023-04-03T07:41:58;7.60;;;4.50;;
14171;SDS011;7165;52.388;4.928;2023-04-03T07:44:25;3.93;;;3.53;;
14171;SDS011;7165;52.388;4.928;2023-04-03T07:46:52;7.13;;;3.73;;
14171;SDS011;7165;52.388;4.928;2023-04-03T07:49:21;5.57;;;3.70;;
14171;SDS011;7165;52.388;4.928;2023-04-03T07:51:49;9.77;;;6.73;;
14171;SDS011;7165;52.388;4.928;2023-04-03T07:54:16;5.07;;;4.57;;
14171;SDS011;7165;52.388;4.928;2023-04-03T07:56:43;5.43;;;4.60;;
14171;SDS011;7165;52.388;4.928;2023-04-03T07:59:10;5.53;;;3.83;;
14171;SDS011;7165;52.388;4.928;2023-04-03T08:01:37;3.60;;;3.30;;
14171;SDS011;7165;52.388;4.928;2023-04-03T08:04:03;5.67;;;4.07;;
14171;SDS011;7165;52.388;4.928;2023-04-03T08:06:33;4.10;;;3.40;;
14171;SDS011;7165;52.388;4.928;2023-04-03T08:09:01;4.13;;;3.70;;
14171;SDS011;7165;52.388;4.928;2023-04-03T08:11:29;7.57;;;4.97;;
14171;SDS011;7165;52.388;4.928;2023-04-03T08:13:56;4.50;;;3.50;;
14171;SDS011;7165;52.388;4.928;2023-04-03T08:16:23;3.63;;;3.30;;
14171;SDS011;7165;52.388;4.928;2023-04-03T08:18:51;4.10;;;3.77;;
14171;SDS011;7165;52.388;4.928;2023-04-03T08:21:18;5.07;;;3.80;;
14171;SDS011;7165;52.388;4.928;2023-04-03T08:23:47;7.50;;;3.70;;
14171;SDS011;7165;52.388;4.928;2023-04-03T08:26:16;3.87;;;3.57;;
14171;SDS011;7165;52.388;4.928;2023-04-03T08:28:43;4.00;;;3.67;;
14171;SDS011;7165;52.388;4.928;2023-04-03T08:31:11;3.37;;;3.07;;
14171;SDS011;7165;52.388;4.928;2023-04-03T08:33:40;3.97;;;3.50;;
14171;SDS011;7165;52.388;4.928;2023-04-03T08:36:07;8.27;;;4.30;;
14171;SDS011;7165;52.388;4.928;2023-04-03T08:38:41;3.73;;;3.30;;
14171;SDS011;7165;52.388;4.928;2023-04-03T08:41:13;3.17;;;2.90;;
14171;SDS011;7165;52.388;4.928;2023-04-03T08:43:50;4.57;;;2.70;;
14171;SDS011;7165;52.388;4.928;2023-04-03T08:46:22;3.80;;;3.40;;
14171;SDS011;7165;52.388;4.928;2023-04-03T08:48:52;4.60;;;3.00;;
14171;SDS011;7165;52.388;4.928;2023-04-03T08:51:20;2.77;;;2.57;;
14171;SDS011;7165;52.388;4.928;2023-04-03T08:53:51;6.37;;;3.47;;
14171;SDS011;7165;52.388;4.928;2023-04-03T08:56:24;3.90;;;3.60;;
14171;SDS011;7165;52.388;4.928;2023-04-03T08:58:52;3.80;;;2.93;;
14171;SDS011;7165;52.388;4.928;2023-04-03T09:01:23;6.23;;;3.77;;
14171;SDS011;7165;52.388;4.928;2023-04-03T10:46:41;1.73;;;1.63;;
14171;SDS011;7165;52.388;4.928;2023-04-03T10:51:47;2.00;;;1.80;;
14171;SDS011;7165;52.388;4.928;2023-04-03T10:54:18;1.63;;;1.52;;
14171;SDS011;7165;52.388;4.928;2023-04-03T10:56:51;1.52;;;1.42;;
14171;SDS011;7165;52.388;4.928;2023-04-03T10:59:22;2.22;;;1.73;;
14171;SDS011;7165;52.388;4.928;2023-04-03T11:01:55;1.60;;;1.50;;
14171;SDS011;7165;52.388;4.928;2023-04-03T11:04:27;2.83;;;1.80;;
14171;SDS011;7165;52.388;4.928;2023-04-03T11:06:59;4.82;;;1.83;;
14171;SDS011;7165;52.388;4.928;2023-04-03T11:09:28;5.82;;;4.55;;
14171;SDS011;7165;52.388;4.928;2023-04-03T11:12:03;2.78;;;2.15;;
14171;SDS011;7165;52.388;4.928;2023-04-03T11:14:35;1.50;;;1.40;;
14171;SDS011;7165;52.388;4.928;2023-04-03T11:17:11;2.63;;;1.73;;
14171;SDS011;7165;52.388;4.928;2023-04-03T11:19:47;1.58;;;1.45;;
14171;SDS011;7165;52.388;4.928;2023-04-03T11:22:20;2.40;;;1.98;;
14171;SDS011;7165;52.388;4.928;2023-04-03T11:24:54;7.10;;;3.28;;
14171;SDS011;7165;52.388;4.928;2023-04-03T11:27:30;2.22;;;2.13;;
14171;SDS011;7165;52.388;4.928;2023-04-03T11:30:04;1.48;;;1.38;;
14171;SDS011;7165;52.388;4.928;2023-04-03T11:32:38;2.38;;;1.60;;
14171;SDS011;7165;52.388;4.928;2023-04-03T11:35:18;3.38;;;1.50;;
14171;SDS011;7165;52.388;4.928;2023-04-03T11:37:47;2.20;;;1.73;;
14171;SDS011;7165;52.388;4.928;2023-04-03T11:40:21;2.25;;;1.40;;
14171;SDS011;7165;52.388;4.928;2023-04-03T11:42:52;2.75;;;2.40;;
14171;SDS011;7165;52.388;4.928;2023-04-03T14:05:13;2.30;;;2.10;;
14171;SDS011;7165;52.388;4.928;2023-04-03T14:07:43;1.70;;;1.60;;
14171;SDS011;7165;52.388;4.928;2023-04-03T14:10:10;1.92;;;1.77;;
14171;SDS011;7165;52.388;4.928;2023-04-03T14:12:37;3.85;;;2.30;;
14171;SDS011;7165;52.388;4.928;2023-04-03T14:15:12;2.90;;;1.65;;
14171;SDS011;7165;52.388;4.928;2023-04-03T14:17:43;2.85;;;1.73;;
14171;SDS011;7165;52.388;4.928;2023-04-03T14:20:13;1.90;;;1.75;;
14171;SDS011;7165;52.388;4.928;2023-04-03T14:22:41;2.03;;;1.75;;
14171;SDS011;7165;52.388;4.928;2023-04-03T14:27:35;2.40;;;1.80;;
14171;SDS011;7165;52.388;4.928;2023-04-03T14:30:05;2.35;;;1.58;;
14171;SDS011;7165;52.388;4.928;2023-04-03T14:32:38;2.72;;;1.60;;
14171;SDS011;7165;52.388;4.928;2023-04-03T14:35:04;3.10;;;1.98;;
14171;SDS011;7165;52.388;4.928;2023-04-03T14:37:32;1.90;;;1.80;;
14171;SDS011;7165;52.388;4.928;2023-04-03T14:39:59;2.58;;;1.55;;
14171;SDS011;7165;52.388;4.928;2023-04-03T14:42:29;1.42;;;1.42;;
14171;SDS011;7165;52.388;4.928;2023-04-03T14:44:57;3.70;;;1.70;;
14171;SDS011;7165;52.388;4.928;2023-04-03T14:47:28;2.00;;;1.80;;
14171;SDS011;7165;52.388;4.928;2023-04-03T14:49:56;1.88;;;1.77;;
14171;SDS011;7165;52.388;4.928;2023-04-03T14:52:24;1.70;;;1.23;;
14171;SDS011;7165;52.388;4.928;2023-04-03T14:54:53;2.72;;;1.90;;
14171;SDS011;7165;52.388;4.928;2023-04-03T14:57:21;1.75;;;1.65;;
14171;SDS011;7165;52.388;4.928;2023-04-03T14:59:49;2.58;;;1.70;;
14171;SDS011;7165;52.388;4.928;2023-04-03T15:02:28;1.92;;;1.67;;
14171;SDS011;7165;52.388;4.928;2023-04-03T15:04:55;4.32;;;2.13;;
14171;SDS011;7165;52.388;4.928;2023-04-03T17:27:07;3.22;;;2.63;;
14171;SDS011;7165;52.388;4.928;2023-04-03T17:29:34;4.47;;;3.17;;
14171;SDS011;7165;52.388;4.928;2023-04-03T17:32:00;5.18;;;3.55;;
14171;SDS011;7165;52.388;4.928;2023-04-03T17:34:27;4.60;;;3.53;;
14171;SDS011;7165;52.388;4.928;2023-04-03T17:36:55;2.70;;;2.50;;
14171;SDS011;7165;52.388;4.928;2023-04-03T17:39:22;7.05;;;4.57;;
14171;SDS011;7165;52.388;4.928;2023-04-03T17:41:48;3.30;;;2.90;;
14171;SDS011;7165;52.388;4.928;2023-04-03T17:44:15;2.63;;;2.35;;
14171;SDS011;7165;52.388;4.928;2023-04-03T17:46:42;4.03;;;3.63;;
14171;SDS011;7165;52.388;4.928;2023-04-03T17:49:08;3.88;;;3.17;;
14171;SDS011;7165;52.388;4.928;2023-04-03T17:51:39;3.53;;;3.03;;
14171;SDS011;7165;52.388;4.928;2023-04-03T17:54:07;3.08;;;2.88;;
14171;SDS011;7165;52.388;4.928;2023-04-03T17:56:33;5.25;;;3.92;;
14171;SDS011;7165;52.388;4.928;2023-04-03T17:59:00;3.72;;;2.95;;
14171;SDS011;7165;52.388;4.928;2023-04-03T18:01:27;6.18;;;4.28;;
14171;SDS011;7165;52.388;4.928;2023-04-03T18:03:56;3.33;;;3.05;;
14171;SDS011;7165;52.388;4.928;2023-04-03T18:06:25;3.85;;;2.60;;
14171;SDS011;7165;52.388;4.928;2023-04-03T18:08:54;5.00;;;4.05;;
14171;SDS011;7165;52.388;4.928;2023-04-03T18:11:25;4.03;;;3.03;;
14171;SDS011;7165;52.388;4.928;2023-04-03T18:13:53;3.78;;;3.10;;
14171;SDS011;7165;52.388;4.928;2023-04-03T18:16:23;3.70;;;3.25;;
14171;SDS011;7165;52.388;4.928;2023-04-03T18:18:49;4.22;;;3.47;;
14171;SDS011;7165;52.388;4.928;2023-04-03T18:21:16;3.22;;;2.78;;
14171;SDS011;7165;52.388;4.928;2023-04-03T18:23:43;4.82;;;2.63;;
14171;SDS011;7165;52.388;4.928;2023-04-03T18:26:14;4.23;;;2.30;;
14171;SDS011;7165;52.388;4.928;2023-04-03T18:28:43;3.70;;;2.75;;
14171;SDS011;7165;52.388;4.928;2023-04-03T18:31:13;3.10;;;2.80;;
14171;SDS011;7165;52.388;4.928;2023-04-03T18:33:41;3.88;;;3.47;;
14171;SDS011;7165;52.388;4.928;2023-04-03T18:36:08;4.30;;;3.73;;
14171;SDS011;7165;52.388;4.928;2023-04-03T18:38:35;5.73;;;4.80;;
14171;SDS011;7165;52.388;4.928;2023-04-03T18:41:03;3.60;;;3.30;;
14171;SDS011;7165;52.388;4.928;2023-04-03T18:43:33;4.13;;;3.23;;
14171;SDS011;7165;52.388;4.928;2023-04-03T18:46:01;3.25;;;2.95;;
14171;SDS011;7165;52.388;4.928;2023-04-03T18:48:29;3.00;;;2.70;;
14171;SDS011;7165;52.388;4.928;2023-04-03T18:50:56;2.80;;;2.60;;
14171;SDS011;7165;52.388;4.928;2023-04-03T18:53:23;2.60;;;2.37;;
14171;SDS011;7165;52.388;4.928;2023-04-03T18:55:50;3.50;;;3.20;;
14171;SDS011;7165;52.388;4.928;2023-04-03T18:58:16;3.40;;;2.90;;
14171;SDS011;7165;52.388;4.928;2023-04-03T19:00:43;2.90;;;2.60;;
14171;SDS011;7165;52.388;4.928;2023-04-03T19:03:11;2.73;;;2.53;;
14171;SDS011;7165;52.388;4.928;2023-04-03T19:05:38;2.80;;;2.60;;
14171;SDS011;7165;52.388;4.928;2023-04-03T19:08:05;3.85;;;2.85;;
14171;SDS011;7165;52.388;4.928;2023-04-03T19:10:32;4.63;;;2.80;;
14171;SDS011;7165;52.388;4.928;2023-04-03T19:12:58;3.27;;;2.97;;
14171;SDS011;7165;52.388;4.928;2023-04-03T19:15:25;3.63;;;3.10;;
14171;SDS011;7165;52.388;4.928;2023-04-03T19:17:52;3.00;;;2.70;;
14171;SDS011;7165;52.388;4.928;2023-04-03T19:20:20;4.67;;;3.20;;
14171;SDS011;7165;52.388;4.928;2023-04-03T19:22:47;3.37;;;2.90;;
14171;SDS011;7165;52.388;4.928;2023-04-03T19:25:13;2.80;;;2.60;;
14171;SDS011;7165;52.388;4.928;2023-04-03T19:27:40;3.07;;;2.77;;
14171;SDS011;7165;52.388;4.928;2023-04-03T19:30:07;3.33;;;2.73;;
14171;SDS011;7165;52.388;4.928;2023-04-03T19:32:36;3.40;;;2.83;;
14171;SDS011;7165;52.388;4.928;2023-04-03T19:35:03;2.70;;;2.50;;
14171;SDS011;7165;52.388;4.928;2023-04-03T19:37:31;2.93;;;2.73;;
14171;SDS011;7165;52.388;4.928;2023-04-03T19:39:58;3.13;;;2.90;;
14171;SDS011;7165;52.388;4.928;2023-04-03T19:42:26;3.67;;;3.37;;
14171;SDS011;7165;52.388;4.928;2023-04-03T19:44:53;3.10;;;2.80;;
14171;SDS011;7165;52.388;4.928;2023-04-03T19:47:19;3.40;;;3.00;;
14171;SDS011;7165;52.388;4.928;2023-04-03T19:49:46;3.47;;;2.80;;
14171;SDS011;7165;52.388;4.928;2023-04-03T19:52:13;4.20;;;3.17;;
14171;SDS011;7165;52.388;4.928;2023-04-03T19:54:41;3.20;;;2.90;;
14171;SDS011;7165;52.388;4.928;2023-04-03T19:57:08;3.90;;;2.57;;
14171;SDS011;7165;52.388;4.928;2023-04-03T19:59:35;3.00;;;2.70;;
14171;SDS011;7165;52.388;4.928;2023-04-03T20:02:01;3.17;;;2.80;;
14171;SDS011;7165;52.388;4.928;2023-04-03T20:04:28;6.80;;;2.93;;
14171;SDS011;7165;52.388;4.928;2023-04-03T20:06:55;4.67;;;2.93;;
14171;SDS011;7165;52.388;4.928;2023-04-03T20:09:22;3.23;;;2.97;;
14171;SDS011;7165;52.388;4.928;2023-04-03T20:11:50;4.03;;;2.77;;
14171;SDS011;7165;52.388;4.928;2023-04-03T20:14:17;3.70;;;3.20;;
14171;SDS011;7165;52.388;4.928;2023-04-03T20:16:43;4.30;;;2.80;;
14171;SDS011;7165;52.388;4.928;2023-04-03T20:19:11;3.63;;;2.83;;
14171;SDS011;7165;52.388;4.928;2023-04-03T20:21:38;3.30;;;3.10;;
14171;SDS011;7165;52.388;4.928;2023-04-03T20:24:05;3.67;;;3.37;;
14171;SDS011;7165;52.388;4.928;2023-04-03T20:26:33;3.50;;;2.70;;
14171;SDS011;7165;52.388;4.928;2023-04-03T20:29:03;3.83;;;3.40;;
14171;SDS011;7165;52.388;4.928;2023-04-03T20:31:30;3.33;;;3.13;;
14171;SDS011;7165;52.388;4.928;2023-04-03T20:33:57;4.53;;;3.27;;
14171;SDS011;7165;52.388;4.928;2023-04-03T20:36:25;3.37;;;3.00;;
14171;SDS011;7165;52.388;4.928;2023-04-03T20:38:53;3.33;;;3.00;;
14171;SDS011;7165;52.388;4.928;2023-04-03T20:41:20;4.03;;;3.47;;
14171;SDS011;7165;52.388;4.928;2023-04-03T20:43:47;4.20;;;3.50;;
14171;SDS011;7165;52.388;4.928;2023-04-03T20:46:15;3.30;;;3.00;;
14171;SDS011;7165;52.388;4.928;2023-04-03T20:48:44;3.73;;;3.40;;
14171;SDS011;7165;52.388;4.928;2023-04-03T20:51:12;3.77;;;3.47;;
14171;SDS011;7165;52.388;4.928;2023-04-03T20:53:40;3.73;;;3.43;;
14171;SDS011;7165;52.388;4.928;2023-04-03T20:56:08;4.00;;;3.53;;
14171;SDS011;7165;52.388;4.928;2023-04-03T20:58:35;3.60;;;3.30;;
14171;SDS011;7165;52.388;4.928;2023-04-03T21:01:10;4.33;;;3.93;;
14171;SDS011;7165;52.388;4.928;2023-04-03T21:03:39;4.17;;;3.77;;
14171;SDS011;7165;52.388;4.928;2023-04-03T21:21:17;5.60;;;3.93;;
14171;SDS011;7165;52.388;4.928;2023-04-03T21:23:46;4.03;;;3.47;;
14171;SDS011;7165;52.388;4.928;2023-04-03T21:26:14;4.37;;;3.40;;
14171;SDS011;7165;52.388;4.928;2023-04-03T21:28:42;4.00;;;3.60;;
14171;SDS011;7165;52.388;4.928;2023-04-03T21:31:09;4.60;;;3.60;;
14171;SDS011;7165;52.388;4.928;2023-04-03T21:33:38;5.17;;;3.60;;
14171;SDS011;7165;52.388;4.928;2023-04-03T21:36:04;3.23;;;3.03;;
14171;SDS011;7165;52.388;4.928;2023-04-03T21:38:32;3.70;;;3.17;;
14171;SDS011;7165;52.388;4.928;2023-04-03T21:41:00;4.50;;;3.30;;
14171;SDS011;7165;52.388;4.928;2023-04-03T21:43:27;3.30;;;3.00;;
14171;SDS011;7165;52.388;4.928;2023-04-03T21:45:54;4.23;;;2.83;;
14171;SDS011;7165;52.388;4.928;2023-04-03T21:48:21;6.17;;;2.83;;
14171;SDS011;7165;52.388;4.928;2023-04-03T21:50:49;4.23;;;3.33;;
14171;SDS011;7165;52.388;4.928;2023-04-03T21:53:17;3.63;;;3.27;;
14171;SDS011;7165;52.388;4.928;2023-04-03T21:55:51;3.50;;;3.17;;
14171;SDS011;7165;52.388;4.928;2023-04-03T21:58:18;3.47;;;3.17;;
14171;SDS011;7165;52.388;4.928;2023-04-03T22:00:44;4.00;;;2.80;;
14171;SDS011;7165;52.388;4.928;2023-04-03T22:03:11;2.90;;;2.70;;
14171;SDS011;7165;52.388;4.928;2023-04-03T22:05:43;3.60;;;3.27;;
14171;SDS011;7165;52.388;4.928;2023-04-03T22:08:11;3.03;;;2.83;;
14171;SDS011;7165;52.388;4.928;2023-04-03T22:10:38;2.97;;;2.77;;
14171;SDS011;7165;52.388;4.928;2023-04-03T22:13:05;7.47;;;3.37;;
14171;SDS011;7165;52.388;4.928;2023-04-03T22:15:34;2.83;;;2.63;;
14171;SDS011;7165;52.388;4.928;2023-04-03T22:18:06;3.10;;;2.77;;
14171;SDS011;7165;52.388;4.928;2023-04-03T22:20:33;3.20;;;2.90;;
14171;SDS011;7165;52.388;4.928;2023-04-03T22:23:00;6.43;;;3.00;;
14171;SDS011;7165;52.388;4.928;2023-04-03T22:25:28;2.60;;;2.45;;
14171;SDS011;7165;52.388;4.928;2023-04-03T22:27:54;2.83;;;2.20;;
14171;SDS011;7165;52.388;4.928;2023-04-03T22:30:21;2.93;;;2.70;;
14171;SDS011;7165;52.388;4.928;2023-04-03T22:32:48;2.80;;;2.60;;
14171;SDS011;7165;52.388;4.928;2023-04-03T22:35:14;2.83;;;2.43;;